Time;durP1;ratioP1;P1;durP2;ratioP2;P2;SDS_P1;SDS_P2;PMS_P1;PMS_P2;Temp;Humidity;BMP_temperature;BMP_pressure;BME280_temperature;BME280_humidity;BME280_pressure;Samples;Min_cycle;Max_cycle;Signal;HPM_P1;HPM_P2
2022/12/15 00:40:41;;;;;;;0.80;0.80;;;14.40;62.20;;;;;;4981387;28;20105;-15
2022/12/15 00:43:10;;;;;;;1.00;1.00;;;14.30;62.10;;;;;;4986333;28;20042;-15
2022/12/15 00:48:20;;;;;;;1.23;1.10;;;14.30;62.20;;;;;;4986462;28;20558;-14
2022/12/15 00:50:52;;;;;;;0.70;0.70;;;14.30;62.30;;;;;;4987517;28;20054;-14
2022/12/15 01:20:41;;;;;;;0.93;0.93;;;14.20;62.10;;;;;;4990128;28;20157;-19
2022/12/15 01:23:07;;;;;;;1.00;1.00;;;14.10;62.20;;;;;;4989916;28;20555;-15
2022/12/15 01:25:32;;;;;;;1.20;1.10;;;14.10;62.20;;;;;;4990496;28;20040;-15
2022/12/15 01:27:58;;;;;;;1.00;1.00;;;14.10;62.20;;;;;;4989936;28;20674;-16
2022/12/15 01:30:25;;;;;;;0.80;0.80;;;14.20;62.00;;;;;;5018127;28;20042;-16
2022/12/15 01:32:51;;;;;;;1.20;0.98;;;14.10;61.90;;;;;;4990392;28;20100;-15
2022/12/15 01:35:16;;;;;;;1.08;1.08;;;14.10;62.10;;;;;;4990221;28;20038;-14
2022/12/15 01:37:42;;;;;;;1.15;1.15;;;14.10;62.10;;;;;;4990487;28;20064;-15
2022/12/15 01:42:54;;;;;;;1.10;1.10;;;14.00;62.20;;;;;;4990432;28;20049;-14
2022/12/15 01:45:22;;;;;;;1.10;1.10;;;14.00;62.30;;;;;;4990627;28;20031;-14
2022/12/15 01:47:49;;;;;;;0.90;0.90;;;14.10;62.10;;;;;;4990224;28;20518;-16
2022/12/15 01:50:15;;;;;;;1.23;1.23;;;14.00;62.20;;;;;;5004333;28;20435;-14
2022/12/15 01:52:40;;;;;;;1.00;1.00;;;14.00;62.30;;;;;;4990564;28;20120;-16
2022/12/15 01:55:06;;;;;;;1.10;1.10;;;14.10;62.30;;;;;;4990179;28;20059;-14
2022/12/15 01:57:32;;;;;;;1.00;1.00;;;14.00;62.20;;;;;;4990238;28;20148;-18
2022/12/15 01:59:59;;;;;;;1.17;1.17;;;14.10;61.90;;;;;;4973250;28;20061;-15
2022/12/15 02:02:26;;;;;;;1.25;1.17;;;14.10;62.00;;;;;;5013873;28;20051;-14
2022/12/15 02:04:52;;;;;;;1.25;1.23;;;14.10;61.80;;;;;;4988342;28;20088;-15
2022/12/15 02:07:18;;;;;;;0.98;0.98;;;14.10;61.70;;;;;;4991303;28;20125;-16
2022/12/15 02:09:44;;;;;;;1.38;1.30;;;14.00;62.10;;;;;;4990731;28;20452;-15
2022/12/15 02:12:28;;;;;;;1.20;1.20;;;14.10;61.70;;;;;;4988496;28;20098;-15
2022/12/15 02:15:19;;;;;;;1.23;1.23;;;14.10;61.90;;;;;;4988159;28;20034;-15
2022/12/15 02:17:57;;;;;;;1.60;1.05;;;14.00;62.00;;;;;;4987527;28;20787;-15
2022/12/15 02:20:50;;;;;;;1.00;1.00;;;14.10;61.70;;;;;;4988553;28;20068;-16
2022/12/15 02:23:34;;;;;;;1.00;1.00;;;14.00;61.90;;;;;;4987856;28;20062;-14
2022/12/15 02:26:22;;;;;;;1.13;1.13;;;14.00;61.90;;;;;;4989645;28;20045;-16
2022/12/15 02:29:19;;;;;;;1.70;1.60;;;14.00;62.00;;;;;;5014120;28;20034;-15
2022/12/15 02:32:24;;;;;;;0.73;0.73;;;14.00;62.00;;;;;;4989464;28;20050;-16
2022/12/15 02:35:09;;;;;;;1.08;1.05;;;13.90;62.00;;;;;;4956987;28;20094;-15
2022/12/15 02:37:36;;;;;;;0.73;0.73;;;14.00;61.80;;;;;;4958547;28;20101;-15
2022/12/15 02:40:02;;;;;;;0.80;0.80;;;14.00;61.80;;;;;;4942895;28;20043;-16
2022/12/15 02:42:28;;;;;;;1.00;1.00;;;14.00;61.80;;;;;;4958372;28;20874;-15
2022/12/15 02:45:03;;;;;;;1.42;1.33;;;13.90;61.80;;;;;;4961478;28;20500;-17
2022/12/15 02:47:33;;;;;;;0.90;0.90;;;14.00;61.70;;;;;;4944604;28;20042;-14
2022/12/15 02:50:19;;;;;;;1.00;1.00;;;14.00;61.70;;;;;;4942134;28;20081;-14
2022/12/15 02:53:06;;;;;;;0.90;0.90;;;14.00;61.60;;;;;;4943282;28;20090;-16
2022/12/15 02:56:16;;;;;;;0.98;0.98;;;14.00;61.70;;;;;;4951715;28;20141;-16
2022/12/15 02:58:56;;;;;;;0.93;0.93;;;14.00;61.60;;;;;;4941438;28;20055;-18
2022/12/15 03:01:30;;;;;;;1.10;1.10;;;13.90;61.70;;;;;;4958232;28;20132;-14
2022/12/15 03:03:56;;;;;;;1.10;1.10;;;13.90;61.90;;;;;;4955705;28;20417;-16
2022/12/15 03:06:23;;;;;;;1.20;1.20;;;13.90;61.70;;;;;;4946329;28;20566;-14
2022/12/15 03:08:49;;;;;;;1.20;1.20;;;13.90;61.70;;;;;;4944770;28;20587;-15
2022/12/15 03:11:14;;;;;;;1.20;1.10;;;13.80;61.90;;;;;;4985927;28;20124;-14
2022/12/15 03:13:40;;;;;;;1.25;1.25;;;13.90;61.60;;;;;;4989872;28;20053;-14
2022/12/15 03:16:06;;;;;;;1.35;1.27;;;13.90;61.70;;;;;;4988706;28;20492;-14
2022/12/15 03:18:31;;;;;;;1.23;1.23;;;13.90;61.70;;;;;;4988247;28;20097;-15
2022/12/15 03:20:57;;;;;;;1.27;1.23;;;13.90;61.50;;;;;;4987637;28;20047;-15
2022/12/15 03:23:22;;;;;;;1.27;1.20;;;13.90;61.50;;;;;;4988188;28;21534;-15
2022/12/15 03:25:48;;;;;;;1.30;1.23;;;14.00;61.30;;;;;;4989203;28;20043;-15
2022/12/15 03:28:14;;;;;;;1.70;1.60;;;14.00;61.30;;;;;;4988429;28;20069;-14
2022/12/15 03:30:40;;;;;;;1.30;1.25;;;13.90;61.50;;;;;;4988962;28;20038;-22
2022/12/15 03:33:06;;;;;;;1.40;1.30;;;13.90;61.50;;;;;;4988208;28;20511;-16
2022/12/15 03:35:32;;;;;;;1.35;1.33;;;13.90;61.60;;;;;;4987261;28;20031;-21
2022/12/15 03:37:58;;;;;;;1.10;1.10;;;13.80;61.60;;;;;;4988572;28;20050;-15
2022/12/15 03:40:23;;;;;;;1.40;1.40;;;13.80;61.90;;;;;;4987721;28;20092;-16
2022/12/15 03:42:49;;;;;;;1.50;1.40;;;13.90;61.60;;;;;;4987590;28;20401;-16
2022/12/15 03:45:22;;;;;;;1.17;1.17;;;13.90;61.50;;;;;;4985664;28;20049;-14
2022/12/15 03:47:47;;;;;;;1.48;1.38;;;13.80;61.70;;;;;;4988385;28;20051;-15
2022/12/15 03:50:15;;;;;;;1.40;1.40;;;13.90;61.50;;;;;;4987171;28;20053;-15
2022/12/15 03:52:40;;;;;;;1.30;1.30;;;13.90;61.50;;;;;;4983793;28;20076;-14
2022/12/15 03:55:06;;;;;;;1.33;1.30;;;13.80;61.60;;;;;;4989108;28;20081;-17
2022/12/15 03:57:32;;;;;;;1.30;1.30;;;13.80;61.80;;;;;;4986212;28;20085;-14
2022/12/15 03:59:58;;;;;;;1.25;1.25;;;13.80;61.60;;;;;;4988307;28;20046;-16
2022/12/15 04:02:23;;;;;;;1.40;1.40;;;13.80;61.70;;;;;;4985389;28;20042;-15
2022/12/15 04:04:49;;;;;;;1.40;1.30;;;13.80;61.90;;;;;;4995501;28;20074;-14
2022/12/15 04:07:14;;;;;;;1.70;1.60;;;13.80;61.70;;;;;;4988386;28;20042;-15
2022/12/15 04:09:40;;;;;;;1.75;1.65;;;13.90;61.40;;;;;;4988947;28;20042;-14
2022/12/15 04:12:06;;;;;;;1.40;1.30;;;13.80;61.50;;;;;;4988037;28;20034;-15
2022/12/15 04:14:32;;;;;;;1.30;1.30;;;13.80;61.60;;;;;;5002332;28;20463;-15
2022/12/15 04:16:57;;;;;;;1.33;1.25;;;13.70;61.80;;;;;;4987107;28;20048;-14
2022/12/15 04:22:07;;;;;;;1.50;1.40;;;13.80;61.60;;;;;;4987966;28;20416;-14
2022/12/15 05:33:04;;;;;;;1.30;1.30;;;13.70;61.20;;;;;;4990846;28;20031;-14
2022/12/15 05:35:30;;;;;;;1.17;1.17;;;13.70;61.20;;;;;;4987844;28;20038;-15
2022/12/15 05:37:55;;;;;;;1.05;1.05;;;13.70;61.20;;;;;;4989686;28;20056;-15
2022/12/15 05:40:21;;;;;;;1.17;1.17;;;13.70;61.30;;;;;;4990461;28;20038;-21
2022/12/15 05:42:47;;;;;;;1.42;1.40;;;13.60;61.10;;;;;;4986679;28;20511;-14
2022/12/15 05:45:12;;;;;;;0.93;0.93;;;13.70;61.00;;;;;;4991138;28;20057;-14
2022/12/15 05:47:38;;;;;;;1.10;1.10;;;13.60;61.20;;;;;;4990860;28;20042;-16
2022/12/15 05:50:04;;;;;;;1.00;1.00;;;13.60;61.30;;;;;;4990187;28;20043;-15
2022/12/15 05:52:29;;;;;;;1.20;1.20;;;13.60;61.20;;;;;;4990562;28;20092;-15
2022/12/15 05:54:55;;;;;;;1.10;1.10;;;13.60;61.30;;;;;;4990903;28;20459;-14
2022/12/15 05:57:20;;;;;;;1.10;1.10;;;13.60;61.10;;;;;;4990037;28;20046;-15
2022/12/15 05:59:46;;;;;;;1.23;1.13;;;13.60;61.20;;;;;;4989885;28;20396;-16
2022/12/15 06:02:12;;;;;;;0.90;0.90;;;13.60;61.20;;;;;;4990832;28;20062;-16
2022/12/15 06:04:37;;;;;;;1.40;1.40;;;13.60;61.10;;;;;;4990733;28;20047;-15
2022/12/15 06:07:03;;;;;;;1.13;1.13;;;13.60;61.30;;;;;;4990594;28;20574;-14
2022/12/15 06:09:28;;;;;;;0.98;0.98;;;13.80;61.20;;;;;;4987257;28;20045;-14
2022/12/15 06:11:54;;;;;;;1.00;1.00;;;13.80;61.10;;;;;;4987112;28;20539;-15
2022/12/15 06:14:19;;;;;;;0.88;0.88;;;13.70;61.80;;;;;;4987671;28;20049;-14
2022/12/15 06:16:45;;;;;;;1.10;1.10;;;13.60;62.50;;;;;;4987313;28;20073;-19
2022/12/15 06:19:11;;;;;;;0.90;0.90;;;13.70;63.20;;;;;;4993767;28;20104;-15
2022/12/15 06:21:36;;;;;;;1.33;1.23;;;13.80;62.60;;;;;;4987483;28;20407;-25
2022/12/15 06:24:03;;;;;;;1.27;1.20;;;13.70;63.10;;;;;;4991247;28;20058;-16
2022/12/15 06:26:30;;;;;;;1.58;1.20;;;13.70;63.40;;;;;;4988002;28;20077;-23
2022/12/15 06:28:57;;;;;;;2.40;1.00;;;13.70;63.40;;;;;;4991274;28;20508;-15
2022/12/15 06:31:24;;;;;;;1.23;1.13;;;13.70;63.80;;;;;;4989447;28;20570;-14
2022/12/15 06:33:50;;;;;;;1.23;1.20;;;13.80;63.70;;;;;;4989471;28;20105;-16
2022/12/15 06:36:16;;;;;;;1.70;1.60;;;13.80;63.60;;;;;;4989751;28;20065;-15
2022/12/15 06:38:42;;;;;;;3.95;1.85;;;13.90;63.50;;;;;;4989098;28;20516;-15
2022/12/15 06:41:08;;;;;;;2.25;1.73;;;13.90;63.70;;;;;;4989676;28;20042;-14
2022/12/15 06:43:33;;;;;;;1.98;1.88;;;13.90;64.20;;;;;;4988914;28;20050;-14
2022/12/15 06:45:59;;;;;;;5.20;1.70;;;13.80;64.40;;;;;;4989649;28;20043;-15
2022/12/15 06:48:25;;;;;;;2.90;1.55;;;13.80;64.60;;;;;;4988219;28;20046;-18
2022/12/15 06:50:51;;;;;;;1.60;1.50;;;13.80;64.60;;;;;;4987191;28;20042;-15
2022/12/15 06:53:17;;;;;;;4.60;1.88;;;13.70;64.40;;;;;;4989018;28;20042;-15
2022/12/15 06:55:43;;;;;;;5.20;2.10;;;13.80;64.20;;;;;;4988037;28;20495;-16
2022/12/15 06:58:11;;;;;;;6.75;1.75;;;13.90;64.10;;;;;;4988863;28;20054;-15
2022/12/15 07:00:36;;;;;;;3.47;1.92;;;13.90;63.70;;;;;;4988644;28;20072;-15
2022/12/15 07:03:03;;;;;;;1.77;1.67;;;13.90;63.60;;;;;;4988680;28;20050;-15
2022/12/15 07:05:29;;;;;;;2.63;1.80;;;13.90;63.70;;;;;;4987107;28;20038;-14
2022/12/15 07:07:54;;;;;;;2.85;2.00;;;13.80;63.60;;;;;;4988007;28;20053;-14
2022/12/15 07:10:20;;;;;;;3.25;2.17;;;13.80;63.70;;;;;;4985177;28;20161;-25
2022/12/15 07:12:45;;;;;;;2.38;2.13;;;13.80;63.40;;;;;;4991126;28;20069;-14
2022/12/15 07:15:12;;;;;;;3.00;2.55;;;13.90;63.30;;;;;;4990087;28;20041;-15
2022/12/15 07:17:37;;;;;;;3.42;2.70;;;13.90;62.90;;;;;;4988044;28;20154;-15
2022/12/15 07:20:06;;;;;;;2.90;2.70;;;13.90;62.90;;;;;;4988633;28;20063;-14
2022/12/15 07:22:32;;;;;;;3.03;2.83;;;13.90;62.90;;;;;;4985062;28;20053;-14
2022/12/15 07:24:57;;;;;;;3.15;2.95;;;13.90;62.90;;;;;;4987726;28;20129;-14
2022/12/15 07:27:23;;;;;;;4.57;3.13;;;13.80;62.90;;;;;;4988434;28;20051;-15
2022/12/15 07:29:49;;;;;;;3.13;2.92;;;13.90;62.90;;;;;;4988397;28;20122;-15
2022/12/15 07:32:14;;;;;;;3.88;3.30;;;13.80;62.80;;;;;;4988498;28;20113;-14
2022/12/15 07:34:40;;;;;;;3.50;3.00;;;13.80;62.70;;;;;;4988535;28;20046;-16
2022/12/15 07:37:06;;;;;;;3.30;3.00;;;13.80;62.80;;;;;;4988635;28;20051;-15
2022/12/15 07:39:31;;;;;;;3.15;2.70;;;13.80;62.90;;;;;;4987245;28;20624;-14
2022/12/15 07:41:57;;;;;;;2.70;2.50;;;13.80;63.10;;;;;;4983067;28;20054;-14
2022/12/15 07:44:23;;;;;;;4.05;3.00;;;13.80;63.10;;;;;;4988431;28;20092;-15
2022/12/15 07:46:48;;;;;;;3.35;3.05;;;13.80;63.20;;;;;;4987356;28;20491;-14
2022/12/15 07:49:15;;;;;;;3.40;3.10;;;13.80;63.20;;;;;;4989265;28;20050;-16
2022/12/15 07:51:41;;;;;;;4.13;2.53;;;13.80;63.10;;;;;;4985585;28;20093;-15
2022/12/15 07:54:10;;;;;;;5.43;2.60;;;13.80;63.10;;;;;;4988323;28;20531;-16
2022/12/15 07:56:36;;;;;;;4.28;2.80;;;13.90;62.80;;;;;;4978576;28;20393;-14
2022/12/15 07:59:02;;;;;;;2.58;2.38;;;13.90;62.70;;;;;;4988570;28;20496;-15
2022/12/15 08:01:27;;;;;;;2.83;2.63;;;13.90;62.60;;;;;;4986584;28;20045;-14
2022/12/15 08:03:53;;;;;;;2.50;2.30;;;13.90;62.60;;;;;;4991845;28;20500;-15
2022/12/15 08:06:18;;;;;;;3.22;3.03;;;13.90;62.50;;;;;;4988598;28;20500;-15
2022/12/15 08:08:44;;;;;;;2.38;2.28;;;13.90;62.40;;;;;;4988197;28;20206;-14
2022/12/15 08:11:12;;;;;;;2.90;2.33;;;13.90;62.30;;;;;;4985445;28;20470;-16
2022/12/15 08:13:38;;;;;;;2.53;2.33;;;13.90;62.30;;;;;;4987788;28;20042;-15
2022/12/15 08:16:03;;;;;;;3.25;2.95;;;14.00;62.00;;;;;;4989146;28;20054;-16
2022/12/15 08:18:29;;;;;;;3.03;2.60;;;14.00;62.20;;;;;;4987506;28;20504;-15
2022/12/15 08:20:55;;;;;;;2.60;2.40;;;14.00;61.90;;;;;;5001121;28;20047;-15
2022/12/15 08:23:20;;;;;;;2.60;2.40;;;14.00;61.90;;;;;;4988408;28;20051;-15
2022/12/15 08:25:46;;;;;;;2.30;2.20;;;14.00;61.90;;;;;;4986782;28;20046;-15
2022/12/15 08:28:12;;;;;;;2.40;2.30;;;13.90;62.00;;;;;;4987971;28;20038;-14
2022/12/15 08:30:38;;;;;;;2.63;2.17;;;13.90;61.90;;;;;;4987919;28;20097;-14
2022/12/15 08:33:03;;;;;;;4.00;2.38;;;13.90;61.70;;;;;;4988248;28;20074;-15
2022/12/15 08:35:29;;;;;;;2.22;2.03;;;13.90;61.50;;;;;;4987296;28;20038;-14
2022/12/15 08:37:54;;;;;;;2.35;2.25;;;13.90;61.20;;;;;;5003324;28;20556;-14
2022/12/15 08:40:20;;;;;;;2.95;2.75;;;13.90;61.10;;;;;;4988078;28;20700;-15
2022/12/15 08:42:46;;;;;;;2.53;2.30;;;13.90;61.20;;;;;;4985427;28;20071;-15
2022/12/15 08:45:12;;;;;;;2.42;2.33;;;13.90;61.20;;;;;;4987713;28;20042;-15
2022/12/15 08:47:38;;;;;;;2.90;2.70;;;13.90;61.20;;;;;;4987609;28;20389;-15
2022/12/15 08:50:06;;;;;;;2.40;2.30;;;13.90;61.00;;;;;;4988411;28;20034;-15
2022/12/15 08:52:32;;;;;;;2.47;2.30;;;13.90;61.10;;;;;;4987144;28;20077;-15
2022/12/15 08:54:57;;;;;;;2.17;1.95;;;13.90;61.00;;;;;;4983511;28;20062;-16
2022/12/15 08:57:23;;;;;;;2.33;2.10;;;13.90;61.10;;;;;;4985754;28;20120;-14
2022/12/15 08:59:48;;;;;;;1.92;1.83;;;13.80;61.10;;;;;;4987302;28;20134;-14
2022/12/15 09:02:14;;;;;;;3.10;2.10;;;13.80;61.20;;;;;;4987465;28;20050;-16
2022/12/15 09:04:39;;;;;;;2.10;2.00;;;13.90;61.10;;;;;;4986981;28;20054;-14
2022/12/15 09:07:06;;;;;;;2.42;2.22;;;13.90;61.00;;;;;;4987794;28;20157;-15
2022/12/15 09:09:31;;;;;;;2.30;2.20;;;13.80;61.20;;;;;;4987788;28;20050;-15
2022/12/15 09:11:57;;;;;;;2.20;2.10;;;13.80;61.10;;;;;;4987628;28;20050;-16
2022/12/15 09:14:23;;;;;;;1.83;1.73;;;13.80;61.20;;;;;;4987478;28;20412;-15
2022/12/15 09:16:48;;;;;;;1.88;1.77;;;13.80;61.10;;;;;;4988231;28;20140;-15
2022/12/15 09:19:14;;;;;;;2.10;1.95;;;13.80;61.00;;;;;;4988744;28;20380;-14
2022/12/15 09:21:43;;;;;;;2.63;1.75;;;13.90;60.90;;;;;;4985312;28;20054;-16
2022/12/15 09:24:11;;;;;;;2.08;1.98;;;13.90;61.10;;;;;;4982836;28;20051;-14
2022/12/15 09:26:36;;;;;;;2.30;2.13;;;13.80;61.00;;;;;;4983367;28;20039;-15
2022/12/15 09:29:02;;;;;;;1.80;1.70;;;13.90;61.10;;;;;;4986105;28;20401;-14
2022/12/15 09:31:29;;;;;;;1.77;1.67;;;13.80;61.20;;;;;;4987295;28;20035;-16
2022/12/15 09:33:56;;;;;;;2.15;2.05;;;13.80;61.40;;;;;;4987583;28;20054;-15
2022/12/15 09:36:22;;;;;;;1.98;1.88;;;13.90;61.10;;;;;;4991184;28;20562;-14
2022/12/15 09:38:47;;;;;;;1.63;1.52;;;13.80;61.30;;;;;;4990471;28;20585;-14
2022/12/15 09:41:16;;;;;;;2.22;1.58;;;13.80;61.50;;;;;;4991216;28;20522;-14
2022/12/15 09:43:51;;;;;;;1.73;1.63;;;13.80;61.50;;;;;;4990118;28;20129;-15
2022/12/15 09:46:38;;;;;;;1.80;1.70;;;13.80;61.40;;;;;;4987792;28;20034;-14
2022/12/15 09:49:14;;;;;;;1.80;1.70;;;13.80;61.30;;;;;;4992785;28;20046;-15
2022/12/15 09:51:45;;;;;;;1.67;1.58;;;13.80;61.20;;;;;;4997188;28;20419;-14
2022/12/15 09:54:11;;;;;;;1.60;1.50;;;13.90;61.30;;;;;;4991084;28;20042;-14
2022/12/15 09:56:56;;;;;;;1.60;1.50;;;13.80;61.50;;;;;;4989803;28;20181;-14
2022/12/15 09:59:29;;;;;;;1.42;1.33;;;13.80;61.50;;;;;;5020949;28;20392;-14
2022/12/15 10:02:13;;;;;;;1.50;1.40;;;13.80;61.40;;;;;;4984674;28;20154;-16
2022/12/15 10:04:57;;;;;;;;;;;13.80;61.40;;;;;;4988554;28;20080;-15
2022/12/15 10:07:33;;;;;;;1.48;1.38;;;13.80;61.50;;;;;;4990374;28;19922;-15
2022/12/15 10:10:23;;;;;;;1.80;1.70;;;13.80;61.50;;;;;;4988114;28;20081;-15
2022/12/15 10:12:49;;;;;;;1.80;1.70;;;13.80;61.60;;;;;;4952112;28;20038;-17
2022/12/15 10:15:26;;;;;;;1.80;1.70;;;13.80;61.70;;;;;;4951731;28;20050;-14
2022/12/15 10:18:10;;;;;;;1.33;1.20;;;13.80;61.80;;;;;;4951554;28;20081;-15
2022/12/15 10:20:35;;;;;;;1.55;1.45;;;13.90;61.60;;;;;;4967322;28;20047;-17
2022/12/15 10:23:10;;;;;;;1.67;1.48;;;14.10;61.10;;;;;;4950269;28;20327;-15
2022/12/15 10:25:35;;;;;;;1.60;1.50;;;14.10;60.80;;;;;;4951178;28;20051;-16
2022/12/15 10:28:19;;;;;;;1.52;1.42;;;13.90;61.10;;;;;;4971176;28;20043;-15
2022/12/15 10:31:25;;;;;;;1.30;1.27;;;13.90;61.80;;;;;;4598876;28;10000044;-14
2022/12/15 10:33:56;;;;;;;2.40;1.55;;;14.10;61.50;;;;;;4965302;28;20555;-14
2022/12/15 10:36:23;;;;;;;1.80;1.40;;;13.90;62.70;;;;;;4947009;28;20081;-14
2022/12/15 10:38:49;;;;;;;1.63;1.52;;;13.90;62.70;;;;;;4963927;28;20053;-15
2022/12/15 10:41:24;;;;;;;1.80;1.70;;;13.90;62.40;;;;;;4962802;28;20047;-15
2022/12/15 10:43:51;;;;;;;1.20;1.10;;;13.90;62.30;;;;;;4970770;28;20166;-14
2022/12/15 10:46:17;;;;;;;1.42;1.20;;;13.90;62.40;;;;;;4962219;28;20069;-15
2022/12/15 10:48:50;;;;;;;1.38;1.20;;;13.90;62.60;;;;;;4964143;28;20435;-16
2022/12/15 10:51:35;;;;;;;1.55;1.13;;;14.00;62.80;;;;;;4982747;28;20530;-15
2022/12/15 10:54:10;;;;;;;1.40;1.30;;;13.90;62.90;;;;;;4978706;28;20062;-15
2022/12/15 10:56:50;;;;;;;1.90;1.75;;;13.90;63.20;;;;;;4985168;28;20033;-14
2022/12/15 10:59:21;;;;;;;1.60;1.50;;;14.00;63.60;;;;;;4984780;28;20105;-15
2022/12/15 11:01:47;;;;;;;1.90;1.70;;;14.00;63.60;;;;;;4979184;28;20511;-14
2022/12/15 11:04:31;;;;;;;2.22;1.65;;;14.00;63.80;;;;;;4980937;28;20061;-14
2022/12/15 11:07:01;;;;;;;1.55;1.50;;;14.00;63.60;;;;;;4973142;28;20054;-15
2022/12/15 11:09:37;;;;;;;1.50;1.40;;;14.00;63.70;;;;;;4974542;28;20046;-14
2022/12/15 11:15:21;;;;;;;1.25;1.17;;;13.90;63.80;;;;;;4963722;28;20635;-15
2022/12/15 11:18:01;;;;;;;1.40;1.30;;;13.90;63.80;;;;;;4977320;28;20605;-16
2022/12/15 11:20:32;;;;;;;1.52;1.42;;;14.00;63.60;;;;;;4977839;28;20355;-14
2022/12/15 11:23:20;;;;;;;1.50;1.40;;;14.00;64.40;;;;;;5005119;28;20078;-16
2022/12/15 11:26:09;;;;;;;1.85;1.23;;;13.90;63.60;;;;;;4977520;28;20038;-16
2022/12/15 11:28:47;;;;;;;1.38;1.30;;;13.90;63.60;;;;;;4973707;28;20109;-16
2022/12/15 11:31:39;;;;;;;1.52;1.30;;;14.00;63.60;;;;;;4942715;28;20054;-15
2022/12/15 11:34:11;;;;;;;1.60;1.35;;;14.00;63.40;;;;;;4958787;28;20057;-16
2022/12/15 11:37:03;;;;;;;4.55;1.10;;;14.00;63.30;;;;;;4956343;28;20541;-14
2022/12/15 11:39:48;;;;;;;1.30;1.20;;;14.10;63.20;;;;;;4978468;28;20038;-17
2022/12/15 11:42:18;;;;;;;1.60;1.50;;;14.10;63.00;;;;;;4963310;28;20054;-15
2022/12/15 11:45:25;;;;;;;1.75;1.65;;;14.10;63.00;;;;;;4978443;28;20050;-16
2022/12/15 11:47:57;;;;;;;1.40;1.30;;;14.10;62.60;;;;;;4974925;28;20046;-16
2022/12/15 11:50:35;;;;;;;2.15;1.45;;;14.00;63.10;;;;;;4981681;28;20089;-15
2022/12/15 11:53:12;;;;;;;1.52;1.42;;;13.90;63.40;;;;;;4963248;28;20534;-15
2022/12/15 11:56:07;;;;;;;2.00;1.30;;;13.90;63.20;;;;;;4982319;28;20443;-16
2022/12/15 11:58:41;;;;;;;;;;;13.90;63.50;;;;;;4964572;28;20102;-15
2022/12/15 12:01:33;;;;;;;1.23;1.20;;;13.80;63.60;;;;;;4978755;28;19954;-14
2022/12/15 12:04:17;;;;;;;1.65;1.15;;;13.80;63.50;;;;;;4981446;28;21772;-15
2022/12/15 12:07:11;;;;;;;1.38;1.27;;;13.80;63.40;;;;;;4981019;28;20515;-15
2022/12/15 12:09:45;;;;;;;1.35;1.25;;;13.80;63.50;;;;;;4981780;28;20190;-14
2022/12/15 12:12:26;;;;;;;2.15;1.58;;;13.90;63.20;;;;;;4982757;28;20058;-15
2022/12/15 12:15:22;;;;;;;1.52;1.42;;;13.90;63.20;;;;;;4983948;28;20121;-16
2022/12/15 12:17:49;;;;;;;3.75;1.42;;;13.90;63.00;;;;;;4982315;28;20065;-15
2022/12/15 12:20:26;;;;;;;1.83;1.10;;;13.80;62.90;;;;;;4986181;28;20052;-14
2022/12/15 12:23:12;;;;;;;1.23;1.13;;;13.80;63.20;;;;;;4999524;28;20100;-16
2022/12/15 12:25:46;;;;;;;0.93;0.93;;;13.80;63.20;;;;;;4982314;28;20414;-14
2022/12/15 12:28:14;;;;;;;0.98;0.93;;;13.80;63.20;;;;;;4984962;28;20053;-15
2022/12/15 12:30:42;;;;;;;1.20;1.10;;;13.80;63.40;;;;;;4981664;28;20053;-15
2022/12/15 12:33:13;;;;;;;2.05;1.10;;;13.70;63.20;;;;;;4982708;28;20522;-14
2022/12/15 12:35:59;;;;;;;1.17;1.08;;;13.80;63.00;;;;;;4983709;28;20049;-16
2022/12/15 12:38:35;;;;;;;2.72;1.20;;;13.80;62.90;;;;;;4980965;28;20040;-16
2022/12/15 12:41:01;;;;;;;1.00;1.00;;;13.90;62.70;;;;;;4981218;28;20046;-15
2022/12/15 12:43:31;;;;;;;1.25;1.15;;;14.00;62.60;;;;;;4984988;28;20069;-17
2022/12/15 12:45:58;;;;;;;1.73;1.10;;;13.90;62.30;;;;;;4983752;28;20145;-17
2022/12/15 12:48:27;;;;;;;1.23;0.80;;;13.90;62.80;;;;;;4974837;28;20488;-15
2022/12/15 12:51:07;;;;;;;1.17;1.08;;;13.90;62.60;;;;;;4981877;28;20057;-15
2022/12/15 12:53:33;;;;;;;1.00;0.80;;;13.90;62.80;;;;;;4971490;28;20419;-16
2022/12/15 12:55:58;;;;;;;1.40;0.95;;;13.90;63.60;;;;;;4982987;28;20034;-15
2022/12/15 12:58:37;;;;;;;0.93;0.93;;;14.00;62.80;;;;;;4978670;28;20158;-15
2022/12/15 13:01:23;;;;;;;0.80;0.80;;;14.00;62.80;;;;;;5009512;28;20039;-17
2022/12/15 13:04:05;;;;;;;1.23;1.13;;;13.90;62.90;;;;;;4986364;28;20069;-17
2022/12/15 13:06:33;;;;;;;3.35;1.13;;;14.00;62.90;;;;;;4988143;28;20171;-14
2022/12/15 13:09:16;;;;;;;1.20;1.10;;;14.10;62.60;;;;;;4988924;28;20049;-15
2022/12/15 13:11:49;;;;;;;1.92;1.00;;;14.10;62.60;;;;;;4983206;28;20097;-16
2022/12/15 13:14:20;;;;;;;0.98;0.98;;;14.00;62.50;;;;;;4990950;28;20118;-16
2022/12/15 13:16:46;;;;;;;1.30;1.20;;;14.00;62.60;;;;;;4989528;28;20046;-15
2022/12/15 13:19:11;;;;;;;0.80;0.80;;;14.00;62.60;;;;;;4989244;28;20121;-16
2022/12/15 13:21:43;;;;;;;0.98;0.90;;;14.00;62.80;;;;;;4989778;28;20057;-15
2022/12/15 13:24:34;;;;;;;0.80;0.77;;;14.00;62.70;;;;;;4990305;28;20073;-15
2022/12/15 13:27:08;;;;;;;1.20;0.90;;;14.00;62.50;;;;;;4988233;28;20504;-16
2022/12/15 13:29:53;;;;;;;1.30;1.30;;;14.10;62.60;;;;;;4991151;28;20508;-18
2022/12/15 13:32:37;;;;;;;1.45;1.20;;;13.90;62.80;;;;;;4990075;28;20542;-23
2022/12/15 13:35:12;;;;;;;1.02;1.02;;;13.90;63.20;;;;;;4988216;28;20058;-15
2022/12/15 13:38:03;;;;;;;1.25;1.20;;;13.90;63.10;;;;;;4990973;28;20488;-16
2022/12/15 13:40:35;;;;;;;1.42;1.33;;;13.90;63.20;;;;;;4990644;28;20289;-15
2022/12/15 13:43:03;;;;;;;2.35;1.50;;;13.90;63.10;;;;;;4988733;28;20054;-15
2022/12/15 13:45:50;;;;;;;2.42;2.22;;;13.90;63.00;;;;;;4990602;28;21679;-15
2022/12/15 13:48:29;;;;;;;2.25;2.08;;;13.90;63.00;;;;;;4990488;28;20050;-15
2022/12/15 13:50:56;;;;;;;2.97;2.72;;;13.90;63.00;;;;;;4986878;28;20038;-15
2022/12/15 13:53:23;;;;;;;4.00;3.70;;;13.90;63.00;;;;;;4985855;28;20050;-14
2022/12/15 13:55:57;;;;;;;4.18;3.22;;;14.00;62.80;;;;;;5009982;28;20050;-15
2022/12/15 13:58:23;;;;;;;4.22;3.75;;;14.00;62.90;;;;;;4985752;28;20129;-15
2022/12/15 14:00:59;;;;;;;4.45;3.50;;;14.00;62.80;;;;;;4988725;28;20137;-17
2022/12/15 14:03:25;;;;;;;3.80;3.50;;;13.90;62.80;;;;;;4985829;28;20054;-15
2022/12/15 14:05:58;;;;;;;3.90;3.50;;;14.00;62.80;;;;;;4986899;28;20415;-17
2022/12/15 14:08:24;;;;;;;3.50;3.20;;;13.90;62.90;;;;;;4989064;28;20046;-15
2022/12/15 14:10:59;;;;;;;4.22;3.55;;;13.90;63.00;;;;;;4990394;28;20030;-15
2022/12/15 14:13:29;;;;;;;4.35;3.95;;;13.90;63.00;;;;;;4984611;28;20500;-16
2022/12/15 14:15:55;;;;;;;4.05;3.75;;;13.90;63.30;;;;;;4985247;28;20053;-16
2022/12/15 14:18:31;;;;;;;5.05;4.55;;;13.90;63.20;;;;;;4987871;28;20046;-16
2022/12/15 14:20:58;;;;;;;4.43;4.03;;;13.90;63.20;;;;;;4987254;28;20031;-15
2022/12/15 14:23:28;;;;;;;4.70;4.30;;;13.90;63.20;;;;;;4991633;28;20495;-17
2022/12/15 14:26:03;;;;;;;4.15;3.85;;;13.90;63.20;;;;;;4988535;28;20392;-16
2022/12/15 14:28:31;;;;;;;4.97;3.83;;;13.90;63.30;;;;;;4984705;28;20531;-14
2022/12/15 14:31:18;;;;;;;4.25;3.85;;;13.90;63.20;;;;;;4988988;28;20085;-14
2022/12/15 14:33:45;;;;;;;5.40;4.32;;;13.90;63.20;;;;;;4976640;28;20627;-15
2022/12/15 14:36:11;;;;;;;4.63;4.22;;;14.00;62.80;;;;;;4970485;28;20854;-14
2022/12/15 14:38:50;;;;;;;4.22;3.83;;;14.00;62.70;;;;;;4970575;28;20042;-16
2022/12/15 14:41:20;;;;;;;4.65;4.28;;;14.00;63.40;;;;;;4970109;28;20103;-15
2022/12/15 14:43:45;;;;;;;4.00;3.70;;;14.00;62.50;;;;;;4971090;28;21071;-15
2022/12/15 14:46:14;;;;;;;4.20;3.90;;;14.00;62.80;;;;;;4967301;28;20119;-23
2022/12/15 14:48:43;;;;;;;4.55;4.20;;;14.00;62.50;;;;;;4968257;28;20133;-15
2022/12/15 14:51:10;;;;;;;4.50;4.10;;;14.00;62.50;;;;;;4967439;28;20046;-15
2022/12/15 14:53:38;;;;;;;4.07;3.78;;;14.00;62.50;;;;;;4968870;28;20048;-14
2022/12/15 14:56:24;;;;;;;4.07;3.78;;;14.00;62.10;;;;;;4969814;28;20050;-16
2022/12/15 14:58:54;;;;;;;4.00;3.60;;;14.00;62.00;;;;;;4969416;28;20041;-14
2022/12/15 15:01:29;;;;;;;3.67;3.40;;;14.10;62.30;;;;;;4970888;28;20053;-19
2022/12/15 15:03:58;;;;;;;3.00;2.80;;;14.10;62.10;;;;;;4971316;28;20062;-15
2022/12/15 15:06:34;;;;;;;3.88;3.20;;;14.10;61.90;;;;;;4971381;28;20056;-15
2022/12/15 15:09:20;;;;;;;3.40;3.10;;;14.10;62.10;;;;;;4968714;28;20169;-15
2022/12/15 15:11:46;;;;;;;3.30;3.00;;;14.10;62.30;;;;;;4967004;28;20050;-14
2022/12/15 15:14:22;;;;;;;3.08;2.88;;;14.00;62.50;;;;;;4967589;28;20653;-14
2022/12/15 15:17:15;;;;;;;3.38;3.08;;;14.00;62.80;;;;;;4967099;28;20058;-14
2022/12/15 15:19:59;;;;;;;3.70;3.38;;;14.10;62.50;;;;;;4966099;28;20050;-17
2022/12/15 15:22:40;;;;;;;3.60;3.30;;;14.20;62.10;;;;;;4950906;28;20537;-15
2022/12/15 15:25:21;;;;;;;5.35;3.83;;;14.30;61.70;;;;;;4968234;28;21158;-14
2022/12/15 15:27:46;;;;;;;4.32;3.95;;;14.40;61.30;;;;;;4977994;28;20085;-14
2022/12/15 15:30:16;;;;;;;4.78;4.35;;;14.50;60.90;;;;;;4982291;28;20050;-16
2022/12/15 15:33:01;;;;;;;4.63;4.18;;;14.50;60.70;;;;;;4986925;28;20069;-15
2022/12/15 15:35:30;;;;;;;5.15;4.07;;;14.50;60.80;;;;;;4985931;28;20058;-15